Time;durP1;ratioP1;P1;durP2;ratioP2;P2;SDS_P1;SDS_P2;PMS_P1;PMS_P2;Temp;Humidity;BMP_temperature;BMP_pressure;BME280_temperature;BME280_humidity;BME280_pressure;Samples;Min_cycle;Max_cycle;Signal;HPM_P1;HPM_P2
2023/05/22 00:02:27;;;;;;;9.70;3.60;;;;;;;13.14;100.00;100722.87;105821;1257;75243;-43
2023/05/22 00:04:57;;;;;;;11.70;4.00;;;;;;;13.09;100.00;100725.41;105856;1259;63794;-42
2023/05/22 00:07:26;;;;;;;6.40;3.50;;;;;;;13.07;100.00;100736.73;105867;1258;61463;-42
2023/05/22 00:09:53;;;;;;;8.10;4.10;;;;;;;13.04;100.00;100745.81;105863;1260;75418;-42
2023/05/22 00:12:20;;;;;;;8.10;3.80;;;;;;;13.00;100.00;100751.09;105865;1253;67967;-42
2023/05/22 00:14:47;;;;;;;5.90;3.50;;;;;;;12.98;100.00;100755.65;105666;1258;75146;-42
2023/05/22 00:17:15;;;;;;;12.70;3.50;;;;;;;12.95;100.00;100760.92;105841;1260;63521;-43
2023/05/22 00:19:42;;;;;;;8.30;3.50;;;;;;;12.91;100.00;100770.02;105875;1259;62048;-43
2023/05/22 00:22:09;;;;;;;13.80;4.50;;;;;;;12.87;100.00;100779.27;105856;1257;74811;-47
2023/05/22 00:24:37;;;;;;;12.60;3.80;;;;;;;12.83;100.00;100787.34;105673;1260;67146;-43
2023/05/22 00:27:05;;;;;;;14.50;3.90;;;;;;;12.76;100.00;100791.81;105728;1253;75645;-43
2023/05/22 00:29:32;;;;;;;7.20;3.80;;;;;;;12.71;100.00;100798.51;105764;1253;64884;-42
2023/05/22 00:31:59;;;;;;;8.60;4.40;;;;;;;12.64;100.00;100800.90;105744;1254;62985;-42
2023/05/22 00:34:26;;;;;;;4.90;3.90;;;;;;;12.58;100.00;100817.67;105634;1258;75557;-41
2023/05/22 00:36:53;;;;;;;6.20;3.80;;;;;;;12.50;100.00;100822.48;105654;1258;66703;-41
2023/05/22 00:39:20;;;;;;;7.30;4.20;;;;;;;12.44;100.00;100838.73;105628;1256;75095;-41
2023/05/22 00:41:48;;;;;;;10.00;4.70;;;;;;;12.39;100.00;100850.23;105591;1258;64204;-41
2023/05/22 00:44:15;;;;;;;12.20;5.30;;;;;;;12.34;100.00;100875.24;105642;1259;61271;-42
2023/05/22 00:46:45;;;;;;;17.50;7.50;;;;;;;12.29;100.00;100893.87;105672;1260;73466;-41
2023/05/22 00:49:12;;;;;;;24.10;7.00;;;;;;;12.21;100.00;100911.30;105671;1253;67014;-41
2023/05/22 00:51:39;;;;;;;11.70;5.30;;;;;;;12.14;100.00;100923.20;105679;1258;74363;-41
2023/05/22 00:54:06;;;;;;;12.00;5.40;;;;;;;12.07;100.00;100939.91;105628;1255;64745;-41
2023/05/22 00:56:33;;;;;;;11.00;4.90;;;;;;;12.03;100.00;100956.07;105781;1259;62703;-42
2023/05/22 00:59:00;;;;;;;9.10;5.20;;;;;;;12.00;100.00;100972.19;105612;1258;74221;-42
2023/05/22 01:01:32;;;;;;;19.20;6.20;;;;;;;11.94;100.00;100977.62;105657;1259;67026;-41
2023/05/22 01:04:00;;;;;;;15.60;7.20;;;;;;;11.91;100.00;100988.73;105749;1258;73490;-47
2023/05/22 01:06:30;;;;;;;17.40;8.60;;;;;;;11.88;100.00;101001.42;105470;1258;62881;-41
2023/05/22 01:08:58;;;;;;;12.40;6.50;;;;;;;11.83;100.00;101004.60;105656;1253;62466;-43
2023/05/22 01:11:29;;;;;;;8.10;4.60;;;;;;;11.77;100.00;101011.44;105647;1258;75475;-43
2023/05/22 01:14:07;;;;;;;11.70;4.60;;;;;;;11.74;100.00;101018.39;105696;1258;67562;-42
2023/05/22 01:16:58;;;;;;;10.90;5.30;;;;;;;11.72;100.00;101026.20;105592;1260;74032;-42
2023/05/22 01:19:47;;;;;;;16.40;6.60;;;;;;;11.72;100.00;101039.67;105675;1258;62011;-41
2023/05/22 01:22:30;;;;;;;27.30;14.60;;;;;;;11.71;100.00;101051.27;105666;1259;62714;-42
2023/05/22 01:25:16;;;;;;;22.40;12.30;;;;;;;11.71;100.00;101057.85;105678;1253;74160;-41
2023/05/22 01:27:49;;;;;;;20.60;10.80;;;;;;;11.69;100.00;101064.45;105744;1253;67432;-40
2023/05/22 01:30:49;;;;;;;29.90;12.80;;;;;;;11.67;100.00;101076.07;105636;1258;75519;-41
2023/05/22 01:33:17;;;;;;;19.10;10.00;;;;;;;11.66;100.00;101086.10;105618;1259;63602;-42
2023/05/22 01:35:47;;;;;;;18.30;8.70;;;;;;;11.64;100.00;101091.30;105678;1269;62783;-42
2023/05/22 01:38:14;;;;;;;21.70;7.40;;;;;;;11.65;100.00;101093.90;105679;1258;73632;-43
2023/05/22 01:40:42;;;;;;;14.70;7.50;;;;;;;11.66;100.00;101100.27;105643;1253;67611;-43
2023/05/22 01:43:10;;;;;;;12.80;7.10;;;;;;;11.67;100.00;101101.64;105421;1259;75475;-42
2023/05/22 01:45:37;;;;;;;11.00;6.50;;;;;;;11.70;100.00;101104.04;105580;1261;63113;-44
2023/05/22 01:48:05;;;;;;;11.60;6.10;;;;;;;11.72;100.00;101105.55;105636;1260;60850;-47
2023/05/22 01:50:33;;;;;;;14.70;5.20;;;;;;;11.74;100.00;101107.25;105718;1258;74374;-41
2023/05/22 01:53:14;;;;;;;16.20;5.60;;;;;;;11.75;100.00;101104.66;105668;1253;67084;-41
2023/05/22 01:55:44;;;;;;;12.80;5.40;;;;;;;11.78;100.00;101105.48;105634;1259;74105;-41
2023/05/22 01:58:34;;;;;;;10.10;5.10;;;;;;;11.82;100.00;101111.14;105665;1253;62676;-41
2023/05/22 02:01:02;;;;;;;12.40;4.30;;;;;;;11.83;100.00;101106.98;105597;1259;62791;-41
2023/05/22 02:03:30;;;;;;;7.60;4.60;;;;;;;11.83;100.00;101108.88;105677;1259;75172;-41
2023/05/22 02:05:59;;;;;;;9.40;5.40;;;;;;;11.83;100.00;101112.67;105704;1260;68039;-42
2023/05/22 02:08:26;;;;;;;9.70;5.00;;;;;;;11.84;100.00;101113.02;105711;1254;75104;-42
2023/05/22 02:10:55;;;;;;;7.90;5.30;;;;;;;11.84;100.00;101113.20;105614;1259;63192;-41
2023/05/22 02:13:22;;;;;;;14.70;5.40;;;;;;;11.84;100.00;101112.33;105712;1258;61279;-41
2023/05/22 02:15:50;;;;;;;17.60;4.60;;;;;;;11.85;100.00;101106.95;105644;1258;75765;-40
2023/05/22 02:18:17;;;;;;;12.10;5.00;;;;;;;11.87;100.00;101105.54;105705;1262;66951;-41
2023/05/22 02:20:47;;;;;;;10.90;4.40;;;;;;;11.89;100.00;101099.30;105647;1258;74377;-41
2023/05/22 02:23:14;;;;;;;6.00;4.50;;;;;;;11.90;100.00;101095.30;105718;1258;61907;-41
2023/05/22 02:25:41;;;;;;;8.70;4.60;;;;;;;11.92;100.00;101095.45;105695;1258;62759;-41
2023/05/22 02:28:09;;;;;;;14.80;4.60;;;;;;;11.93;100.00;101096.29;105629;1258;74942;-43
2023/05/22 02:30:36;;;;;;;12.20;3.90;;;;;;;11.98;100.00;101091.73;105682;1254;66161;-41
2023/05/22 02:33:04;;;;;;;21.40;4.60;;;;;;;12.04;100.00;101090.48;105632;1258;75228;-41
2023/05/22 02:35:31;;;;;;;6.80;4.00;;;;;;;12.10;100.00;101088.98;105671;1254;61672;-41
2023/05/22 02:37:59;;;;;;;10.20;4.50;;;;;;;12.18;100.00;101082.65;105656;1259;61796;-42
2023/05/22 02:40:26;;;;;;;10.10;4.10;;;;;;;12.26;100.00;101080.97;105694;1258;75600;-42
2023/05/22 02:42:53;;;;;;;8.30;3.60;;;;;;;12.33;100.00;101073.59;105621;1259;66960;-42
2023/05/22 02:45:21;;;;;;;8.40;3.70;;;;;;;12.42;100.00;101066.52;105631;1259;75230;-42
2023/05/22 02:47:48;;;;;;;15.90;4.40;;;;;;;12.51;100.00;101057.55;105698;1260;61988;-42
2023/05/22 02:50:16;;;;;;;7.40;3.80;;;;;;;12.60;100.00;101044.40;105698;1255;63080;-42
2023/05/22 02:52:44;;;;;;;5.60;3.50;;;;;;;12.71;100.00;101027.60;105642;1260;74353;-42
2023/05/22 02:55:11;;;;;;;6.50;3.70;;;;;;;12.81;100.00;101015.64;105718;1257;68280;-42
2023/05/22 02:57:38;;;;;;;7.60;3.30;;;;;;;12.91;100.00;100994.84;105640;1258;74706;-42
2023/05/22 03:00:05;;;;;;;9.50;4.10;;;;;;;13.02;100.00;100975.92;105637;1254;63406;-41
2023/05/22 03:02:33;;;;;;;9.00;3.50;;;;;;;13.12;100.00;100945.73;105750;1254;62641;-41
2023/05/22 03:05:00;;;;;;;35.10;4.30;;;;;;;13.23;100.00;100920.70;105685;1259;76040;-42
2023/05/22 03:07:28;;;;;;;8.60;4.00;;;;;;;13.33;100.00;100892.61;105652;1259;67206;-42
2023/05/22 03:09:55;;;;;;;7.40;3.60;;;;;;;13.43;100.00;100862.73;105613;1259;75210;-42
2023/05/22 03:12:22;;;;;;;14.10;3.20;;;;;;;13.54;100.00;100830.77;105622;1259;63301;-42
2023/05/22 03:14:50;;;;;;;10.20;3.90;;;;;;;13.63;100.00;100793.78;105643;1259;61732;-42
2023/05/22 03:17:17;;;;;;;6.00;4.00;;;;;;;13.72;100.00;100767.36;105658;1254;75280;-42
2023/05/22 03:19:45;;;;;;;13.70;4.10;;;;;;;13.79;100.00;100734.39;105686;1254;67871;-42
2023/05/22 03:22:12;;;;;;;12.90;3.60;;;;;;;13.88;100.00;100700.69;105604;1256;73629;-42
2023/05/22 03:24:40;;;;;;;15.30;4.20;;;;;;;13.96;100.00;100674.60;105647;1256;63266;-42
2023/05/22 03:27:07;;;;;;;7.50;3.80;;;;;;;14.04;100.00;100660.32;105671;1256;61853;-42
2023/05/22 03:29:39;;;;;;;14.30;3.80;;;;;;;14.13;100.00;100640.98;105636;1267;74644;-42
2023/05/22 03:32:06;;;;;;;5.40;3.50;;;;;;;14.20;100.00;100628.77;105654;1260;66883;-42
2023/05/22 03:34:34;;;;;;;10.10;3.70;;;;;;;14.29;100.00;100616.52;105653;1259;75319;-40
2023/05/22 03:37:01;;;;;;;8.40;3.60;;;;;;;14.37;100.00;100602.73;105675;1254;64791;-44
2023/05/22 03:39:29;;;;;;;15.80;4.10;;;;;;;14.46;100.00;100587.52;105350;1260;61140;-41
2023/05/22 03:42:05;;;;;;;7.40;4.70;;;;;;;14.57;100.00;100584.02;105573;1259;76464;-49
2023/05/22 03:44:32;;;;;;;13.90;6.00;;;;;;;14.68;100.00;100575.16;105741;1261;67848;-44
2023/05/22 03:46:59;;;;;;;20.80;4.40;;;;;;;14.79;100.00;100570.83;105673;1257;72840;-42
2023/05/22 03:49:27;;;;;;;14.60;4.60;;;;;;;14.89;100.00;100569.45;105658;1260;60578;-42
2023/05/22 03:51:54;;;;;;;7.50;4.00;;;;;;;14.97;100.00;100564.15;105704;1259;61475;-42
2023/05/22 03:54:22;;;;;;;7.30;3.50;;;;;;;15.05;100.00;100561.61;105697;1260;76324;-42
2023/05/22 03:56:49;;;;;;;11.00;3.70;;;;;;;15.11;100.00;100564.69;105624;1261;68105;-42
2023/05/22 03:59:18;;;;;;;7.90;3.40;;;;;;;15.17;100.00;100562.55;105689;1260;74349;-42
2023/05/22 04:01:45;;;;;;;9.10;3.80;;;;;;;15.21;100.00;100562.91;105664;1253;61876;-42
2023/05/22 04:04:12;;;;;;;9.50;3.60;;;;;;;15.28;100.00;100566.37;105681;1254;62449;-42
2023/05/22 04:06:41;;;;;;;11.20;4.40;;;;;;;15.36;100.00;100567.63;105628;1254;76367;-42
2023/05/22 04:09:11;;;;;;;14.30;3.50;;;;;;;15.46;100.00;100572.84;105677;1260;66957;-41
2023/05/22 04:11:39;;;;;;;15.20;3.70;;;;;;;15.53;100.00;100576.36;105756;1254;75464;-42
2023/05/22 04:14:06;;;;;;;10.20;3.90;;;;;;;15.65;100.00;100577.35;105688;1255;62117;-42
2023/05/22 04:16:33;;;;;;;9.20;3.40;;;;;;;15.80;100.00;100577.84;105654;1258;60986;-42
2023/05/22 04:19:02;;;;;;;7.80;3.60;;;;;;;16.00;100.00;100578.48;105660;1258;76293;-42
2023/05/22 04:21:32;;;;;;;7.00;3.70;;;;;;;16.18;100.00;100588.36;105683;1253;67220;-43
2023/05/22 04:24:05;;;;;;;7.60;3.80;;;;;;;16.32;100.00;100597.92;105669;1259;75736;-43
2023/05/22 04:26:34;;;;;;;7.00;4.00;;;;;;;16.40;100.00;100611.73;105705;1254;62099;-42
2023/05/22 04:29:02;;;;;;;8.10;4.20;;;;;;;16.45;100.00;100622.16;105658;1254;62794;-45
2023/05/22 04:31:29;;;;;;;8.70;3.80;;;;;;;16.55;100.00;100622.61;105725;1254;75369;-43
2023/05/22 04:33:58;;;;;;;7.10;3.10;;;;;;;16.76;100.00;100618.97;105429;1261;67357;-42
2023/05/22 04:36:27;;;;;;;10.30;4.00;;;;;;;16.97;100.00;100618.83;105579;1255;74255;-44
2023/05/22 04:38:55;;;;;;;5.30;3.60;;;;;;;17.14;100.00;100634.16;105712;1255;61000;-42
2023/05/22 04:41:25;;;;;;;7.00;3.60;;;;;;;17.25;100.00;100642.55;105623;1258;61908;-43
2023/05/22 04:43:53;;;;;;;10.00;3.90;;;;;;;17.29;100.00;100656.53;105693;1260;76072;-42
2023/05/22 04:46:20;;;;;;;8.90;3.80;;;;;;;17.32;100.00;100653.08;105647;1254;68098;-42
2023/05/22 04:48:48;;;;;;;5.40;3.50;;;;;;;17.44;100.00;100648.89;105699;1254;74081;-41
2023/05/22 04:51:16;;;;;;;7.30;3.80;;;;;;;17.62;100.00;100653.52;105660;1255;61677;-41
2023/05/22 04:53:44;;;;;;;8.40;4.10;;;;;;;17.77;100.00;100656.86;105713;1254;62953;-42
2023/05/22 04:56:12;;;;;;;8.60;3.70;;;;;;;17.87;100.00;100675.27;105724;1254;76272;-43
2023/05/22 04:58:52;;;;;;;8.90;4.50;;;;;;;17.92;100.00;100686.58;105670;1254;66875;-41
2023/05/22 05:01:21;;;;;;;5.10;3.60;;;;;;;17.94;100.00;100690.80;105680;1259;75409;-42
2023/05/22 05:03:48;;;;;;;8.80;3.70;;;;;;;17.94;100.00;100698.70;105683;1260;62474;-42
2023/05/22 05:06:16;;;;;;;3.90;3.00;;;;;;;17.95;100.00;100703.02;105652;1255;62100;-43
2023/05/22 05:08:45;;;;;;;6.30;3.50;;;;;;;18.04;100.00;100698.25;105634;1261;76376;-41
2023/05/22 05:11:12;;;;;;;22.30;3.50;;;;;;;18.17;100.00;100696.44;105701;1260;66688;-41
2023/05/22 05:13:41;;;;;;;6.10;3.30;;;;;;;18.19;100.00;100704.23;105697;1258;74158;-43
2023/05/22 05:16:08;;;;;;;6.50;3.10;;;;;;;18.11;100.00;100714.91;105661;1254;61246;-43
2023/05/22 05:18:36;;;;;;;12.00;4.20;;;;;;;17.98;100.00;100715.83;105658;1258;62693;-43
2023/05/22 05:21:04;;;;;;;8.60;3.70;;;;;;;17.79;100.00;100715.44;105670;1254;76065;-43
2023/05/22 05:23:32;;;;;;;7.80;3.60;;;;;;;17.60;100.00;100714.51;105671;1253;67104;-43
2023/05/22 05:25:59;;;;;;;13.60;4.00;;;;;;;17.44;100.00;100703.84;105667;1260;74065;-41
2023/05/22 05:28:27;;;;;;;7.90;3.40;;;;;;;17.34;100.00;100696.26;105712;1255;64797;-42
2023/05/22 05:30:56;;;;;;;8.30;3.60;;;;;;;17.21;100.00;100685.80;105673;1260;60595;-42
2023/05/22 05:34:02;;;;;;;8.60;4.00;;;;;;;17.03;100.00;100680.98;105599;1260;76728;-42
2023/05/22 05:36:42;;;;;;;7.80;4.20;;;;;;;16.84;100.00;100676.66;105659;1254;67931;-43
2023/05/22 05:39:11;;;;;;;3.70;3.40;;;;;;;16.68;100.00;100672.81;105702;1254;74596;-43
2023/05/22 05:41:38;;;;;;;6.60;4.10;;;;;;;16.60;100.00;100669.09;105672;1260;62284;-42
2023/05/22 05:44:08;;;;;;;10.30;3.90;;;;;;;16.53;100.00;100662.06;105646;1254;60953;-42
2023/05/22 05:46:35;;;;;;;9.60;3.80;;;;;;;16.49;100.00;100653.35;105669;1253;75925;-42
2023/05/22 05:49:08;;;;;;;11.90;4.20;;;;;;;16.53;100.00;100645.70;105707;1261;67814;-43
2023/05/22 05:51:37;;;;;;;10.50;3.80;;;;;;;16.66;100.00;100642.92;105657;1254;73983;-42
2023/05/22 05:54:05;;;;;;;6.30;3.60;;;;;;;16.85;100.00;100638.48;105631;1263;61843;-42
2023/05/22 05:56:33;;;;;;;9.50;3.80;;;;;;;17.07;100.00;100636.72;105626;1258;60691;-42
2023/05/22 05:59:01;;;;;;;8.20;3.80;;;;;;;17.26;100.00;100636.06;105623;1260;76366;-42
2023/05/22 06:01:38;;;;;;;4.60;3.70;;;;;;;17.43;100.00;100634.96;105670;1259;67918;-41
2023/05/22 06:04:10;;;;;;;14.80;4.30;;;;;;;17.56;100.00;100648.36;105665;1254;75234;-41
2023/05/22 06:06:38;;;;;;;4.00;3.60;;;;;;;17.63;100.00;100653.84;105680;1260;63747;-42
2023/05/22 06:09:23;;;;;;;6.10;3.70;;;;;;;17.74;100.00;100653.86;105679;1261;63217;-49
2023/05/22 06:12:06;;;;;;;12.80;4.40;;;;;;;17.77;100.00;100655.81;105468;1258;74433;-43
2023/05/22 06:14:33;;;;;;;11.30;3.70;;;;;;;17.79;100.00;100658.33;105476;1258;66818;-45
2023/05/22 06:17:01;;;;;;;5.90;3.80;;;;;;;17.88;100.00;100654.64;105670;1257;73913;-47
2023/05/22 06:19:28;;;;;;;8.80;4.70;;;;;;;18.02;100.00;100650.32;105748;1254;62406;-41
2023/05/22 06:21:56;;;;;;;7.80;4.90;;;;;;;18.24;100.00;100657.16;105633;1260;63272;-42
2023/05/22 06:24:23;;;;;;;11.70;3.70;;;;;;;18.44;100.00;100663.58;105693;1257;75457;-42
2023/05/22 06:26:51;;;;;;;8.10;4.00;;;;;;;18.61;100.00;100681.80;105835;1253;68417;-42
2023/05/22 06:29:18;;;;;;;5.00;3.80;;;;;;;18.76;100.00;100684.42;105873;1254;75433;-42
2023/05/22 06:31:45;;;;;;;6.70;3.60;;;;;;;18.91;100.00;100698.33;105814;1257;61775;-42
2023/05/22 06:34:15;;;;;;;9.00;4.40;;;;;;;19.06;100.00;100697.98;105817;1257;62761;-42
2023/05/22 06:36:44;;;;;;;5.80;4.00;;;;;;;19.26;100.00;100698.02;105881;1255;76314;-43
2023/05/22 06:39:13;;;;;;;11.20;4.50;;;;;;;19.45;100.00;100697.45;105904;1254;68591;-43
2023/05/22 06:41:59;;;;;;;13.00;8.20;;;;;;;19.67;100.00;100698.74;105880;1254;74564;-42
2023/05/22 06:44:42;;;;;;;3.40;3.10;;;;;;;19.68;100.00;100720.02;105885;1255;62000;-43
2023/05/22 06:47:10;;;;;;;24.10;8.10;;;;;;;19.67;100.00;100723.63;105843;1257;62768;-42
2023/05/22 06:49:37;;;;;;;10.10;4.50;;;;;;;19.83;100.00;100716.85;105862;1257;76502;-43
2023/05/22 06:52:05;;;;;;;10.60;5.80;;;;;;;20.08;100.00;100708.36;105806;1254;68322;-43
2023/05/22 06:54:33;;;;;;;8.40;4.50;;;;;;;20.26;100.00;100715.59;105694;1257;74794;-43
2023/05/22 06:57:02;;;;;;;5.30;3.20;;;;;;;20.36;100.00;100718.58;105713;1254;61789;-43
2023/05/22 06:59:30;;;;;;;12.20;3.10;;;;;;;20.53;100.00;100720.95;105903;1257;62787;-42
2023/05/22 07:02:06;;;;;;;7.30;3.10;;;;;;;20.70;100.00;100723.13;105830;1257;76103;-43
2023/05/22 07:04:52;;;;;;;4.10;2.30;;;;;;;20.85;100.00;100728.14;105830;1257;68006;-42
2023/05/22 07:07:26;;;;;;;6.50;4.20;;;;;;;20.86;100.00;100730.16;105868;1257;73705;-42
2023/05/22 07:09:54;;;;;;;10.90;4.50;;;;;;;20.83;100.00;100737.16;105659;1254;62969;-43
2023/05/22 07:12:25;;;;;;;8.20;3.40;;;;;;;20.89;100.00;100733.33;105844;1254;61385;-42
2023/05/22 07:14:53;;;;;;;5.50;3.30;;;;;;;20.92;100.00;100727.90;105727;1259;75636;-42
2023/05/22 07:17:21;;;;;;;10.70;2.70;;;;;;;20.89;100.00;100748.09;105832;1257;66263;-42
2023/05/22 07:19:49;;;;;;;3.90;2.60;;;;;;;21.00;100.00;100747.27;105837;1257;75439;-42
2023/05/22 07:22:16;;;;;;;6.40;2.60;;;;;;;21.20;100.00;100729.42;105679;1255;62067;-44
2023/05/22 07:24:45;;;;;;;10.40;2.70;;;;;;;21.42;98.26;100730.98;105858;1254;63244;-43
2023/05/22 07:27:12;;;;;;;4.20;2.60;;;;;;;21.77;95.08;100732.07;105824;1257;74443;-44
2023/05/22 07:29:40;;;;;;;3.50;2.30;;;;;;;22.12;85.75;100719.38;105809;1254;68344;-43
2023/05/22 07:32:07;;;;;;;4.80;1.80;;;;;;;22.28;71.06;100678.50;105858;1254;74128;-42
2023/05/22 07:34:34;;;;;;;4.30;1.80;;;;;;;22.28;67.43;100678.13;105808;1254;60523;-42
2023/05/22 07:37:06;;;;;;;4.00;1.70;;;;;;;22.45;64.73;100659.29;105877;1257;62628;-42
2023/05/22 07:39:34;;;;;;;5.20;2.20;;;;;;;22.49;62.08;100638.13;105859;1257;76462;-42
2023/05/22 07:42:01;;;;;;;3.40;1.80;;;;;;;22.57;61.49;100650.08;105764;1257;67158;-42
2023/05/22 07:44:30;;;;;;;6.00;1.70;;;;;;;22.73;61.75;100671.02;105877;1254;74410;-43
2023/05/22 07:46:58;;;;;;;3.70;1.70;;;;;;;22.98;60.92;100657.58;105902;1254;60999;-42
2023/05/22 07:49:27;;;;;;;7.80;2.30;;;;;;;23.24;60.01;100642.09;105870;1257;61061;-43
2023/05/22 07:51:54;;;;;;;5.10;1.80;;;;;;;23.46;58.74;100617.20;105877;1257;76662;-42
2023/05/22 07:54:23;;;;;;;1.90;1.60;;;;;;;23.51;55.51;100534.75;105834;1253;68343;-42
2023/05/22 07:56:51;;;;;;;6.10;1.60;;;;;;;23.51;55.87;100571.79;105892;1258;74558;-42
2023/05/22 07:59:20;;;;;;;2.90;1.80;;;;;;;23.74;55.47;100569.23;105692;1260;61517;-42
2023/05/22 08:01:49;;;;;;;2.30;1.60;;;;;;;23.91;52.69;100450.93;105867;1257;62135;-43
2023/05/22 08:04:16;;;;;;;11.20;2.00;;;;;;;23.84;51.83;100450.11;105818;1254;75655;-43
2023/05/22 08:06:44;;;;;;;2.70;1.80;;;;;;;23.93;52.62;100516.45;105731;1254;67326;-43
2023/05/22 08:09:11;;;;;;;2.30;1.40;;;;;;;24.23;53.49;100555.31;105921;1254;74508;-43
2023/05/22 08:11:40;;;;;;;2.60;1.50;;;;;;;24.76;52.17;100477.81;105843;1257;62864;-43
2023/05/22 08:14:08;;;;;;;2.60;1.50;;;;;;;25.17;50.20;100380.19;105812;1257;62235;-43
2023/05/22 08:16:36;;;;;;;6.00;1.40;;;;;;;25.41;49.60;100351.05;105883;1254;74973;-43
2023/05/22 08:19:05;;;;;;;4.40;2.00;;;;;;;25.63;49.73;100384.23;105935;1254;68666;-43
2023/05/22 08:21:33;;;;;;;1.70;1.60;;;;;;;25.92;47.72;100230.01;105770;1254;74908;-42
2023/05/22 08:24:00;;;;;;;8.00;1.70;;;;;;;25.97;47.80;100268.98;105904;1257;61799;-42
2023/05/22 08:26:28;;;;;;;2.60;1.50;;;;;;;26.23;47.78;100270.80;105965;1256;61687;-43
2023/05/22 08:28:57;;;;;;;5.30;1.60;;;;;;;26.51;46.95;100199.27;105877;1253;75951;-43
2023/05/22 08:31:26;;;;;;;7.20;1.50;;;;;;;26.79;46.00;100138.19;105817;1254;66881;-43
2023/05/22 08:34:01;;;;;;;3.40;1.70;;;;;;;26.58;44.10;99957.11;105806;1257;74366;-43
2023/05/22 08:36:32;;;;;;;4.30;1.40;;;;;;;25.92;44.53;100068.11;105859;1254;62158;-43
2023/05/22 08:39:00;;;;;;;6.20;1.50;;;;;;;25.26;46.05;100266.29;105827;1257;61715;-42
2023/05/22 08:41:29;;;;;;;2.70;1.40;;;;;;;24.82;46.79;100362.09;105950;1256;75298;-43
2023/05/22 08:43:56;;;;;;;2.60;1.50;;;;;;;24.45;46.46;100339.31;105729;1257;66675;-43
2023/05/22 08:46:28;;;;;;;4.90;2.10;;;;;;;24.08;46.67;100355.70;105667;1254;75163;-45
2023/05/22 08:48:56;;;;;;;3.80;1.30;;;;;;;24.15;47.72;100473.09;105880;1257;61979;-49
2023/05/22 08:51:30;;;;;;;5.20;1.10;;;;;;;24.60;46.75;100362.79;105844;1254;62687;-42
2023/05/22 08:53:57;;;;;;;7.70;1.50;;;;;;;24.96;45.66;100230.80;105890;1253;76007;-43
2023/05/22 08:56:25;;;;;;;3.20;1.20;;;;;;;25.20;45.95;100263.79;105654;1259;68375;-43
2023/05/22 08:58:55;;;;;;;2.80;1.40;;;;;;;25.48;45.19;100166.83;105830;1254;73914;-44
2023/05/22 09:01:22;;;;;;;3.10;1.50;;;;;;;25.69;45.75;100238.39;109423;1253;62811;-43
2023/05/22 09:03:50;;;;;;;2.50;2.00;;;;;;;25.95;45.70;100239.33;109579;1252;60338;-44
2023/05/22 09:06:17;;;;;;;4.40;1.60;;;;;;;26.29;45.73;100244.83;109603;1253;75999;-44
2023/05/22 09:08:45;;;;;;;4.20;1.60;;;;;;;26.56;45.24;100189.21;109599;1252;67613;-44
2023/05/22 09:11:12;;;;;;;6.80;1.70;;;;;;;26.60;45.10;100166.23;109569;1253;75332;-44
2023/05/22 09:13:40;;;;;;;7.70;1.60;;;;;;;26.58;45.38;100218.98;109577;1252;62646;-45
2023/05/22 09:16:11;;;;;;;4.50;1.70;;;;;;;26.57;44.71;100167.23;109579;1253;61955;-45
2023/05/22 09:18:38;;;;;;;8.20;1.70;;;;;;;26.32;44.66;100162.72;109536;1253;74461;-43
2023/05/22 09:21:05;;;;;;;9.40;2.00;;;;;;;26.09;45.75;100293.91;109596;1253;66394;-43
2023/05/22 09:23:51;;;;;;;5.50;2.00;;;;;;;26.04;46.22;100347.35;109583;1252;74813;-44
2023/05/22 09:26:18;;;;;;;5.30;1.80;;;;;;;25.87;47.10;100449.35;109615;1253;61529;-44
2023/05/22 09:28:46;;;;;;;4.10;1.90;;;;;;;25.59;47.31;100492.34;109584;1252;61511;-44
2023/05/22 09:31:12;;;;;;;8.10;2.00;;;;;;;25.33;47.83;100524.37;109564;1253;76718;-44
2023/05/22 09:33:40;;;;;;;3.50;1.80;;;;;;;25.30;47.90;100544.05;109602;1252;66608;-43
2023/05/22 09:39:41;;;;;;;4.10;2.00;;;;;;;25.58;48.17;100533.69;102732;1290;600100;-44
2023/05/22 09:42:16;;;;;;;1.70;1.60;;;;;;;25.58;48.33;100544.67;105037;1269;62270;-44
2023/05/22 09:44:48;;;;;;;7.50;1.80;;;;;;;25.64;46.72;100392.08;104855;1270;61453;-44
2023/05/22 09:47:15;;;;;;;11.50;2.30;;;;;;;25.59;46.71;100383.84;104926;1268;74393;-42
2023/05/22 09:49:43;;;;;;;2.10;2.00;;;;;;;25.50;47.91;100500.99;105459;1257;67581;-44
2023/05/22 09:52:11;;;;;;;3.50;2.00;;;;;;;25.48;48.05;100511.36;105347;1261;239275;-44
2023/05/22 09:54:42;;;;;;;11.20;2.10;;;;;;;25.48;48.76;100566.33;105546;1257;62481;-44
2023/05/22 09:57:10;;;;;;;12.00;2.20;;;;;;;25.62;47.11;100421.58;105516;1257;62544;-45
2023/05/22 09:59:39;;;;;;;2.30;1.60;;;;;;;25.60;46.20;100310.14;105551;1257;73693;-43
2023/05/22 10:02:06;;;;;;;5.10;1.80;;;;;;;25.55;46.99;100404.70;105460;1257;67462;-45
2023/05/22 10:04:34;;;;;;;3.00;2.10;;;;;;;25.63;46.52;100345.20;105411;1257;75125;-44
2023/05/22 10:07:02;;;;;;;2.60;1.50;;;;;;;25.62;46.49;100346.34;105363;1262;62823;-45
2023/05/22 10:09:33;;;;;;;6.20;1.80;;;;;;;25.74;45.97;100306.31;105441;1262;63053;-43
2023/05/22 10:12:06;;;;;;;3.30;2.00;;;;;;;25.88;45.93;100283.02;105591;1257;76047;-45
2023/05/22 10:14:34;;;;;;;3.60;2.20;;;;;;;25.93;45.50;100251.83;105383;1260;67640;-44
2023/05/22 10:17:03;;;;;;;4.40;2.00;;;;;;;25.93;45.92;100285.10;105598;1257;74771;-43
2023/05/22 10:19:31;;;;;;;4.10;2.00;;;;;;;26.02;46.07;100303.55;105807;1253;61813;-44
2023/05/22 10:21:59;;;;;;;7.10;1.80;;;;;;;26.25;44.93;100197.36;105831;1253;63380;-44
2023/05/22 10:24:26;;;;;;;6.20;1.90;;;;;;;26.31;45.00;100201.00;105929;1256;73793;-45
2023/05/22 10:26:54;;;;;;;3.60;1.60;;;;;;;26.47;44.69;100171.50;105790;1258;67297;-45
2023/05/22 10:29:34;;;;;;;6.60;1.80;;;;;;;26.58;45.00;100210.63;105761;1253;74349;-44
2023/05/22 10:32:28;;;;;;;5.30;1.90;;;;;;;26.77;43.73;100070.95;105924;1255;61986;-44
2023/05/22 10:34:56;;;;;;;5.10;1.80;;;;;;;26.81;43.24;100020.11;105922;1253;62771;-44
2023/05/22 10:37:29;;;;;;;4.10;1.80;;;;;;;26.87;43.25;100021.87;105857;1252;74847;-43
2023/05/22 10:42:20;;;;;;;2.50;1.70;;;;;;;26.95;43.56;100068.39;102662;1296;600509;-43
2023/05/22 10:44:48;;;;;;;3.50;2.10;;;;;;;26.98;43.63;100080.55;104906;1266;62912;-44
2023/05/22 10:47:15;;;;;;;7.10;2.00;;;;;;;27.09;43.92;100123.60;104900;1267;62670;-44
2023/05/22 10:49:44;;;;;;;5.90;2.00;;;;;;;27.15;43.35;100074.69;104877;1267;73793;-44
2023/05/22 10:52:13;;;;;;;6.10;2.20;;;;;;;27.04;43.18;100060.14;104914;1279;67683;-45
2023/05/22 10:54:44;;;;;;;5.80;1.90;;;;;;;27.15;43.71;100094.54;104815;1280;75021;-44
2023/05/22 10:57:15;;;;;;;3.60;1.70;;;;;;;27.44;43.27;100070.30;104959;1276;253414;-44
2023/05/22 10:59:46;;;;;;;13.00;2.30;;;;;;;27.71;42.65;99977.78;105015;1264;62909;-42
2023/05/22 11:02:30;;;;;;;4.30;1.70;;;;;;;27.62;42.58;99971.77;105189;1267;74642;-43
2023/05/22 11:05:12;;;;;;;3.90;1.80;;;;;;;27.22;42.12;99936.23;105663;1258;66961;-44
2023/05/22 11:07:40;;;;;;;2.30;1.80;;;;;;;26.83;43.04;100053.69;105582;1258;74386;-47
2023/05/22 11:10:07;;;;;;;10.30;2.00;;;;;;;26.84;42.90;100038.64;105275;1256;63345;-44
2023/05/22 11:12:36;;;;;;;2.90;1.60;;;;;;;26.96;42.43;99992.89;105551;1261;62697;-44
2023/05/22 11:15:04;;;;;;;1.90;1.60;;;;;;;27.01;42.20;99967.27;105666;1261;75447;-44
2023/05/22 11:17:35;;;;;;;3.10;1.90;;;;;;;26.81;42.51;100007.92;105655;1260;67443;-46
2023/05/22 11:20:12;;;;;;;3.00;1.70;;;;;;;26.62;42.37;99993.60;105590;1257;74283;-44
2023/05/22 11:22:41;;;;;;;5.60;2.00;;;;;;;26.48;42.33;100002.95;105679;1260;61919;-43
2023/05/22 11:25:09;;;;;;;5.00;1.60;;;;;;;26.27;43.16;100102.71;105613;1261;62038;-44
2023/05/22 11:27:38;;;;;;;3.70;1.80;;;;;;;26.28;43.72;100186.40;105632;1261;75997;-44